Time;durP1;ratioP1;P1;durP2;ratioP2;P2;SDS_P1;SDS_P2;PMS_P1;PMS_P2;Temp;Humidity;BMP_temperature;BMP_pressure;BME280_temperature;BME280_humidity;BME280_pressure;Samples;Min_cycle;Max_cycle;Signal;HPM_P1;HPM_P2
2022/01/05 00:01:20;;;;;;;9.73;1.73;;;3.40;99.90;;;;;;4988842;28;20050;-70
2022/01/05 00:03:46;;;;;;;17.30;3.65;;;3.40;99.90;;;;;;5007916;28;20049;-70
2022/01/05 00:06:11;;;;;;;12.02;2.75;;;3.50;99.90;;;;;;5007195;28;20124;-71
2022/01/05 00:08:38;;;;;;;9.95;2.40;;;3.60;99.90;;;;;;4991620;28;20576;-71
2022/01/05 00:11:03;;;;;;;16.08;2.95;;;3.70;99.90;;;;;;4987068;28;20476;-71
2022/01/05 00:13:29;;;;;;;14.35;3.03;;;3.70;99.90;;;;;;4983914;28;20054;-71
2022/01/05 00:15:54;;;;;;;14.45;2.95;;;3.70;99.90;;;;;;4989047;28;20054;-71
2022/01/05 00:18:20;;;;;;;15.10;2.80;;;3.70;99.90;;;;;;5008284;28;21735;-71
2022/01/05 00:20:46;;;;;;;17.67;2.67;;;3.70;99.90;;;;;;5004939;28;20486;-71
2022/01/05 00:23:12;;;;;;;11.40;2.35;;;3.70;99.90;;;;;;5004679;28;20132;-71
2022/01/05 00:25:37;;;;;;;9.73;1.98;;;3.70;99.90;;;;;;5001872;28;20046;-71
2022/01/05 00:28:03;;;;;;;10.15;1.65;;;3.70;99.90;;;;;;5003025;28;20413;-71
2022/01/05 00:30:29;;;;;;;9.55;2.13;;;3.70;99.90;;;;;;5002773;28;20048;-71
2022/01/05 00:32:55;;;;;;;18.45;2.83;;;3.70;99.90;;;;;;4986224;28;20044;-70
2022/01/05 00:35:20;;;;;;;13.80;2.35;;;3.70;99.90;;;;;;5007506;28;20134;-71
2022/01/05 00:37:46;;;;;;;19.58;3.08;;;3.80;99.90;;;;;;4991791;28;20046;-70
2022/01/05 00:40:12;;;;;;;11.73;2.35;;;3.80;99.90;;;;;;4988941;28;20034;-71
2022/01/05 00:42:38;;;;;;;16.95;2.63;;;3.80;99.90;;;;;;4990715;28;20050;-70
2022/01/05 00:45:04;;;;;;;15.02;2.30;;;3.80;99.90;;;;;;4990526;28;20068;-71
2022/01/05 00:47:30;;;;;;;10.25;2.60;;;3.70;99.90;;;;;;4988134;28;20046;-70
2022/01/05 00:49:55;;;;;;;10.18;2.22;;;3.70;99.90;;;;;;4985328;28;20405;-71
2022/01/05 00:52:21;;;;;;;20.38;2.67;;;3.70;99.90;;;;;;4990660;28;20497;-71
2022/01/05 00:54:46;;;;;;;8.35;2.13;;;3.70;99.90;;;;;;4988852;28;20045;-71
2022/01/05 00:57:12;;;;;;;16.63;2.28;;;3.70;99.90;;;;;;4989621;28;20037;-71
2022/01/05 00:59:38;;;;;;;8.32;2.15;;;3.70;99.90;;;;;;4991648;28;20050;-70
2022/01/05 01:02:04;;;;;;;9.57;2.42;;;3.70;99.90;;;;;;4991258;28;20096;-71
2022/01/05 01:04:30;;;;;;;14.23;3.47;;;3.70;99.90;;;;;;5006951;28;20038;-71
2022/01/05 01:06:55;;;;;;;10.18;2.60;;;3.60;99.90;;;;;;5006750;28;20053;-71
2022/01/05 01:09:21;;;;;;;17.42;2.75;;;3.60;99.90;;;;;;5008113;28;20093;-70
2022/01/05 01:11:47;;;;;;;10.20;2.30;;;3.60;99.90;;;;;;4983203;28;20038;-70
2022/01/05 01:14:13;;;;;;;13.93;3.17;;;3.70;99.90;;;;;;4989575;28;20448;-70
2022/01/05 01:16:39;;;;;;;12.70;2.45;;;3.70;99.90;;;;;;4989027;28;20030;-71
2022/01/05 01:19:04;;;;;;;11.25;2.42;;;3.70;99.90;;;;;;5002034;28;20042;-71
2022/01/05 01:21:30;;;;;;;17.10;2.25;;;3.70;99.90;;;;;;4986961;28;20057;-71
2022/01/05 01:23:56;;;;;;;9.15;2.08;;;3.70;99.90;;;;;;5005713;28;20049;-71
2022/01/05 01:26:27;;;;;;;11.25;2.38;;;3.80;99.90;;;;;;4986463;28;20323;-70
2022/01/05 01:28:53;;;;;;;13.20;2.05;;;3.80;99.90;;;;;;5001367;28;20050;-71
2022/01/05 01:31:19;;;;;;;12.27;2.33;;;3.70;99.90;;;;;;5003135;28;20188;-71
2022/01/05 01:33:45;;;;;;;14.32;2.72;;;3.70;99.90;;;;;;5004573;28;20045;-70
2022/01/05 01:36:11;;;;;;;23.70;3.03;;;3.70;99.90;;;;;;5002833;28;20033;-71
2022/01/05 01:38:37;;;;;;;8.77;2.05;;;3.70;99.90;;;;;;5006581;28;20046;-71
2022/01/05 01:41:03;;;;;;;16.13;2.88;;;3.80;99.90;;;;;;4988016;28;20172;-71
2022/01/05 01:43:29;;;;;;;18.15;4.10;;;3.80;99.90;;;;;;4990564;28;20042;-71
2022/01/05 01:45:55;;;;;;;16.25;3.53;;;3.80;99.90;;;;;;5004648;28;20123;-71
2022/01/05 01:48:20;;;;;;;19.60;3.10;;;3.80;99.90;;;;;;5000040;28;20434;-71
2022/01/05 01:50:46;;;;;;;10.75;1.77;;;3.90;99.90;;;;;;4981451;28;20062;-71
2022/01/05 01:53:12;;;;;;;17.50;3.17;;;4.00;99.90;;;;;;4995599;28;20625;-71
2022/01/05 01:55:39;;;;;;;14.75;2.38;;;3.90;99.90;;;;;;4982739;28;20366;-71
2022/01/05 01:58:06;;;;;;;19.23;2.72;;;3.90;99.90;;;;;;5009810;28;20230;-71
2022/01/05 02:00:32;;;;;;;16.95;2.78;;;3.90;99.90;;;;;;4984939;28;20555;-70
2022/01/05 02:02:58;;;;;;;21.67;2.58;;;3.90;99.90;;;;;;4984056;28;20121;-71
2022/01/05 02:05:24;;;;;;;16.05;3.17;;;3.80;99.90;;;;;;4979803;28;20137;-71
2022/01/05 02:07:50;;;;;;;12.77;2.95;;;3.80;99.90;;;;;;5000647;28;20134;-70
2022/01/05 02:10:16;;;;;;;18.73;3.70;;;3.80;99.90;;;;;;5001379;28;20148;-71
2022/01/05 02:12:43;;;;;;;17.35;3.35;;;3.90;99.90;;;;;;5008568;28;20057;-71
2022/01/05 02:15:10;;;;;;;17.40;2.88;;;3.90;99.90;;;;;;4988950;28;20557;-71
2022/01/05 02:17:50;;;;;;;12.07;2.05;;;3.90;99.90;;;;;;4987182;28;20053;-71
2022/01/05 02:20:21;;;;;;;14.38;2.50;;;4.00;99.90;;;;;;4987708;28;20038;-71
2022/01/05 02:22:48;;;;;;;22.27;3.00;;;4.00;99.90;;;;;;4992594;28;20046;-71
2022/01/05 02:25:14;;;;;;;8.57;2.45;;;4.00;99.90;;;;;;4989004;28;20458;-71
2022/01/05 02:27:41;;;;;;;15.73;3.00;;;4.00;99.90;;;;;;4989625;28;20129;-71
2022/01/05 02:30:09;;;;;;;12.20;2.85;;;3.90;99.90;;;;;;5004843;28;20038;-71
2022/01/05 02:32:35;;;;;;;17.85;2.92;;;4.00;99.90;;;;;;5002042;28;20061;-70
2022/01/05 02:35:00;;;;;;;13.77;2.15;;;4.00;99.90;;;;;;4995918;28;20074;-71
2022/01/05 02:37:26;;;;;;;17.00;2.30;;;4.10;99.90;;;;;;4980758;28;20053;-71
2022/01/05 02:39:52;;;;;;;15.25;2.33;;;4.10;99.90;;;;;;4998311;28;20400;-71
2022/01/05 02:42:28;;;;;;;13.35;2.63;;;4.10;99.90;;;;;;4997809;28;20050;-71
2022/01/05 02:44:55;;;;;;;15.32;2.92;;;4.20;99.90;;;;;;4997670;28;20177;-71
2022/01/05 02:47:21;;;;;;;6.43;1.83;;;4.20;99.90;;;;;;4987264;28;20263;-72
2022/01/05 02:49:47;;;;;;;20.70;4.43;;;4.20;99.90;;;;;;4988403;28;20044;-71
2022/01/05 02:52:13;;;;;;;17.35;2.80;;;4.20;99.90;;;;;;4997835;28;20141;-71
2022/01/05 02:54:39;;;;;;;15.35;2.22;;;4.30;99.90;;;;;;4996903;28;20182;-71
2022/01/05 02:57:05;;;;;;;12.27;2.28;;;4.20;99.90;;;;;;4999086;28;20081;-71
2022/01/05 02:59:30;;;;;;;8.77;2.47;;;4.20;99.90;;;;;;4979768;28;20402;-71
2022/01/05 03:01:56;;;;;;;16.23;2.85;;;4.20;99.90;;;;;;4999429;28;20112;-71
2022/01/05 03:04:23;;;;;;;11.32;2.45;;;4.20;99.90;;;;;;4998225;28;20508;-71
2022/01/05 03:06:49;;;;;;;10.48;1.88;;;4.30;99.90;;;;;;4997850;28;20145;-71
2022/01/05 03:09:14;;;;;;;15.75;3.08;;;4.30;99.90;;;;;;4997188;28;20073;-71
2022/01/05 03:11:40;;;;;;;14.30;2.47;;;4.30;99.90;;;;;;4999757;28;20461;-71
2022/01/05 03:14:05;;;;;;;7.97;1.95;;;4.40;99.90;;;;;;5005552;28;20041;-71
2022/01/05 03:16:31;;;;;;;8.88;1.50;;;4.40;99.90;;;;;;5000981;28;20034;-71
2022/01/05 03:18:57;;;;;;;5.60;1.55;;;4.40;99.90;;;;;;5005406;28;20489;-71
2022/01/05 03:21:22;;;;;;;6.93;1.90;;;4.40;99.90;;;;;;5006361;28;20042;-71
2022/01/05 03:23:48;;;;;;;2.08;1.15;;;4.20;99.90;;;;;;5009317;28;20041;-71
2022/01/05 03:26:14;;;;;;;3.03;1.17;;;4.20;99.90;;;;;;5001776;28;20551;-71
2022/01/05 03:28:39;;;;;;;6.78;1.30;;;4.00;99.90;;;;;;4986908;28;20078;-71
2022/01/05 03:31:05;;;;;;;7.72;1.45;;;3.90;99.90;;;;;;4999461;28;20053;-71
2022/01/05 03:33:31;;;;;;;13.55;2.38;;;3.90;99.90;;;;;;4997501;28;20049;-70
2022/01/05 03:35:56;;;;;;;6.28;1.20;;;3.90;99.90;;;;;;5001019;28;20057;-70
2022/01/05 03:38:23;;;;;;;8.10;2.03;;;3.80;99.90;;;;;;4999442;28;20053;-71
2022/01/05 03:40:50;;;;;;;4.93;1.35;;;3.80;99.90;;;;;;4999603;28;20557;-71
2022/01/05 03:43:16;;;;;;;5.55;1.40;;;3.80;99.90;;;;;;4999201;28;20510;-71
2022/01/05 03:45:42;;;;;;;9.50;1.75;;;3.80;99.90;;;;;;4998882;28;20073;-71
2022/01/05 03:48:10;;;;;;;8.00;1.50;;;3.90;99.90;;;;;;4999506;28;20220;-71
2022/01/05 03:50:37;;;;;;;8.38;1.90;;;3.90;99.90;;;;;;5001815;28;20037;-71
2022/01/05 03:53:04;;;;;;;7.22;1.17;;;3.90;99.90;;;;;;5000062;28;20046;-71
2022/01/05 03:55:31;;;;;;;12.55;2.92;;;3.90;99.90;;;;;;5005093;28;20046;-71
2022/01/05 03:57:57;;;;;;;8.30;1.30;;;3.90;99.90;;;;;;5001460;28;20057;-71
2022/01/05 04:00:24;;;;;;;10.65;1.65;;;3.90;99.90;;;;;;4999360;28;20049;-71
2022/01/05 04:02:50;;;;;;;13.38;2.83;;;3.90;99.90;;;;;;5002092;28;20034;-71
2022/01/05 04:05:16;;;;;;;13.07;2.53;;;3.90;99.90;;;;;;5001531;28;20052;-71
2022/01/05 04:07:42;;;;;;;18.00;2.60;;;3.90;99.90;;;;;;5000349;28;20058;-71
2022/01/05 04:10:08;;;;;;;16.65;3.20;;;3.90;99.90;;;;;;5001157;28;20449;-71
2022/01/05 04:12:33;;;;;;;13.35;2.60;;;4.00;99.90;;;;;;5005423;28;20042;-71
2022/01/05 04:14:59;;;;;;;11.82;2.58;;;4.10;99.90;;;;;;5010018;28;20148;-70
2022/01/05 04:17:25;;;;;;;14.65;2.55;;;4.10;99.90;;;;;;5007943;28;20045;-71
2022/01/05 04:19:50;;;;;;;15.18;2.50;;;4.20;99.90;;;;;;5001897;28;20145;-71
2022/01/05 04:22:16;;;;;;;14.57;2.97;;;4.20;99.90;;;;;;5008688;28;20062;-71
2022/01/05 04:24:42;;;;;;;11.25;2.35;;;4.20;99.90;;;;;;5009331;28;20030;-71
2022/01/05 04:27:08;;;;;;;22.83;4.78;;;4.20;99.90;;;;;;4999345;28;20490;-71
2022/01/05 04:29:33;;;;;;;13.75;2.65;;;4.20;99.90;;;;;;4999667;28;20046;-71
2022/01/05 04:32:00;;;;;;;18.15;2.80;;;4.20;99.90;;;;;;4999796;28;20045;-71
2022/01/05 04:34:26;;;;;;;16.83;2.65;;;4.30;99.90;;;;;;4997705;28;20050;-71
2022/01/05 04:36:52;;;;;;;16.23;2.40;;;4.30;99.90;;;;;;4999471;28;20076;-71
2022/01/05 04:39:18;;;;;;;14.20;2.65;;;4.30;99.90;;;;;;4999020;28;20078;-71
2022/01/05 04:41:43;;;;;;;12.32;2.50;;;4.40;99.90;;;;;;5000235;28;20061;-71
2022/01/05 04:44:09;;;;;;;22.60;3.88;;;4.40;99.90;;;;;;4999019;28;20049;-71
2022/01/05 04:46:35;;;;;;;13.57;2.42;;;4.40;99.90;;;;;;5000202;28;20053;-71
2022/01/05 04:49:01;;;;;;;19.98;3.70;;;4.50;99.90;;;;;;4998587;28;20060;-70
2022/01/05 04:51:26;;;;;;;11.45;2.15;;;4.50;99.90;;;;;;4999013;28;20121;-70
2022/01/05 04:53:52;;;;;;;16.98;3.30;;;4.50;99.90;;;;;;5001418;28;20050;-70
2022/01/05 04:56:18;;;;;;;9.05;1.67;;;4.50;99.90;;;;;;4999337;28;20042;-69
2022/01/05 04:58:44;;;;;;;21.58;3.70;;;4.50;99.90;;;;;;4999206;28;20093;-70
2022/01/05 05:01:09;;;;;;;15.40;2.28;;;4.50;99.90;;;;;;4997458;28;20086;-70
2022/01/05 05:03:35;;;;;;;15.60;2.38;;;4.50;99.90;;;;;;5000964;28;20045;-70
2022/01/05 05:06:01;;;;;;;12.88;3.53;;;4.50;99.90;;;;;;4997781;28;20042;-69
2022/01/05 05:08:26;;;;;;;13.68;2.13;;;4.40;99.90;;;;;;5001386;28;20069;-69
2022/01/05 05:10:52;;;;;;;16.95;2.72;;;4.50;99.90;;;;;;4998790;28;20042;-70
2022/01/05 05:13:18;;;;;;;17.77;2.72;;;4.50;99.90;;;;;;4998374;28;20128;-70
2022/01/05 05:15:43;;;;;;;19.48;2.83;;;4.50;99.90;;;;;;4998548;28;20073;-70
2022/01/05 05:18:09;;;;;;;19.67;3.50;;;4.60;99.90;;;;;;4997750;28;20410;-69
2022/01/05 05:20:35;;;;;;;23.48;3.42;;;4.60;99.90;;;;;;5001313;28;20038;-70
2022/01/05 05:23:02;;;;;;;9.25;2.63;;;4.60;99.90;;;;;;5002139;28;20215;-70
2022/01/05 05:25:28;;;;;;;9.18;2.10;;;4.70;99.90;;;;;;4999712;28;20053;-70
2022/01/05 05:27:53;;;;;;;19.40;2.97;;;4.70;99.90;;;;;;4999550;28;20053;-70
2022/01/05 05:30:20;;;;;;;15.85;2.42;;;4.70;99.90;;;;;;4998609;28;20053;-70
2022/01/05 05:32:45;;;;;;;14.02;2.70;;;4.70;99.90;;;;;;4998128;28;20622;-70
2022/01/05 05:35:11;;;;;;;14.10;2.95;;;4.70;99.90;;;;;;4996879;28;20050;-70
2022/01/05 05:37:37;;;;;;;9.90;2.15;;;4.70;99.90;;;;;;5003209;28;20037;-70
2022/01/05 05:40:04;;;;;;;18.15;3.50;;;4.70;99.90;;;;;;4991999;28;20088;-71
2022/01/05 05:42:30;;;;;;;13.88;1.98;;;4.70;99.90;;;;;;4997658;28;20045;-70
2022/01/05 05:44:55;;;;;;;22.27;3.38;;;4.80;99.90;;;;;;4997405;28;20065;-70
2022/01/05 05:47:21;;;;;;;22.38;3.50;;;4.80;99.90;;;;;;4995624;28;20867;-70
2022/01/05 05:49:48;;;;;;;30.25;4.85;;;4.90;99.90;;;;;;4988327;28;20053;-71
2022/01/05 05:52:15;;;;;;;21.48;3.30;;;4.90;99.90;;;;;;4996541;28;20045;-71
2022/01/05 05:54:40;;;;;;;23.35;3.30;;;5.00;99.90;;;;;;4998680;28;20054;-71
2022/01/05 05:57:07;;;;;;;11.90;2.22;;;5.00;99.90;;;;;;4985442;28;20046;-71
2022/01/05 05:59:33;;;;;;;12.18;2.58;;;5.00;99.90;;;;;;4984019;28;20042;-71
2022/01/05 06:01:59;;;;;;;11.80;1.60;;;5.00;99.90;;;;;;4997622;28;20053;-69
2022/01/05 06:04:24;;;;;;;14.55;2.80;;;5.00;99.90;;;;;;4981051;28;20050;-70
2022/01/05 06:06:51;;;;;;;9.73;1.58;;;5.00;99.90;;;;;;4993627;28;20054;-69
2022/01/05 06:09:16;;;;;;;13.60;2.10;;;4.90;99.90;;;;;;4993479;28;20082;-70
2022/01/05 06:11:42;;;;;;;8.25;1.73;;;4.80;99.90;;;;;;4997835;28;20123;-71
2022/01/05 06:14:07;;;;;;;18.73;2.92;;;4.80;99.90;;;;;;4994965;28;20390;-71
2022/01/05 06:16:33;;;;;;;10.65;2.50;;;4.70;99.90;;;;;;4995869;28;20076;-71
2022/01/05 06:18:59;;;;;;;10.35;1.83;;;4.60;99.90;;;;;;4994620;28;20494;-71
2022/01/05 06:21:24;;;;;;;6.35;1.23;;;4.50;99.90;;;;;;4999318;28;20520;-71
2022/01/05 06:23:53;;;;;;;19.38;2.58;;;4.50;99.90;;;;;;4996543;28;20068;-71
2022/01/05 06:26:20;;;;;;;10.68;1.88;;;4.40;99.90;;;;;;5000246;28;20089;-71
2022/01/05 06:28:46;;;;;;;10.35;2.00;;;4.30;99.90;;;;;;4998105;28;20074;-72
2022/01/05 06:31:11;;;;;;;15.63;2.72;;;4.30;99.90;;;;;;5004334;28;20077;-71
2022/01/05 06:33:37;;;;;;;16.75;2.65;;;4.30;99.90;;;;;;4994456;28;20413;-71
2022/01/05 06:36:03;;;;;;;15.75;3.20;;;4.40;99.90;;;;;;4996228;28;20490;-71
2022/01/05 06:38:29;;;;;;;16.85;2.63;;;4.40;99.90;;;;;;4997728;28;20143;-69
2022/01/05 06:40:54;;;;;;;19.10;2.83;;;4.50;99.90;;;;;;5014999;28;20431;-70
2022/01/05 06:43:20;;;;;;;20.80;3.30;;;4.60;99.90;;;;;;4995660;28;21164;-70
2022/01/05 06:45:46;;;;;;;20.75;2.60;;;4.70;99.90;;;;;;4986290;28;20478;-71
2022/01/05 06:48:11;;;;;;;14.68;2.83;;;4.80;99.90;;;;;;4996286;28;20172;-71
2022/01/05 06:50:37;;;;;;;13.38;2.28;;;4.90;99.90;;;;;;4976596;28;20490;-71
2022/01/05 06:53:03;;;;;;;7.95;1.65;;;4.90;99.90;;;;;;4992607;28;20042;-71
2022/01/05 06:55:28;;;;;;;29.88;3.08;;;5.00;99.90;;;;;;4997657;28;20111;-72
2022/01/05 06:57:54;;;;;;;16.33;1.95;;;5.00;99.90;;;;;;4998951;28;20045;-71
2022/01/05 07:00:21;;;;;;;16.80;2.83;;;5.00;99.90;;;;;;4990435;28;20069;-71
2022/01/05 07:02:47;;;;;;;15.95;2.60;;;5.10;99.90;;;;;;4971648;28;20109;-71
2022/01/05 07:05:13;;;;;;;11.20;2.25;;;5.10;99.90;;;;;;4992232;28;20049;-71
2022/01/05 07:07:39;;;;;;;8.60;1.50;;;5.10;99.90;;;;;;4995659;28;20449;-71
2022/01/05 07:10:09;;;;;;;15.27;2.42;;;5.10;99.90;;;;;;4995190;28;20046;-71
2022/01/05 07:12:36;;;;;;;17.85;2.10;;;5.10;99.90;;;;;;5000597;28;20450;-71
2022/01/05 07:15:03;;;;;;;13.65;2.20;;;5.10;99.90;;;;;;4990172;28;20046;-71
2022/01/05 07:17:28;;;;;;;19.92;3.65;;;5.10;99.90;;;;;;4997082;28;20041;-71
2022/01/05 07:19:54;;;;;;;12.02;2.20;;;5.10;99.90;;;;;;4999693;28;20048;-70
2022/01/05 07:22:19;;;;;;;18.92;3.15;;;5.20;99.90;;;;;;4995252;28;20046;-71
2022/01/05 07:24:45;;;;;;;14.63;3.13;;;5.20;99.90;;;;;;4990353;28;20172;-71
2022/01/05 07:27:11;;;;;;;25.27;3.28;;;5.20;99.90;;;;;;4994598;28;20046;-70
2022/01/05 07:29:37;;;;;;;17.77;3.40;;;5.30;99.90;;;;;;4975665;28;20040;-70
2022/01/05 07:32:03;;;;;;;28.88;3.40;;;5.30;99.90;;;;;;4995427;28;20080;-70
2022/01/05 07:34:29;;;;;;;17.63;2.53;;;5.30;99.90;;;;;;4995763;28;20056;-70
2022/01/05 07:36:55;;;;;;;14.02;2.42;;;5.30;99.90;;;;;;4996820;28;20050;-70
2022/01/05 07:39:20;;;;;;;6.57;1.38;;;5.20;99.90;;;;;;4996034;28;20081;-70
2022/01/05 07:41:46;;;;;;;7.88;1.55;;;5.20;99.90;;;;;;4990736;28;20504;-70
2022/01/05 07:44:12;;;;;;;16.10;2.40;;;5.20;99.90;;;;;;4995481;28;20081;-71
2022/01/05 07:46:37;;;;;;;17.88;5.10;;;5.10;99.90;;;;;;4972063;28;20448;-70
2022/01/05 07:49:05;;;;;;;19.63;3.03;;;5.20;99.90;;;;;;4994981;28;20485;-71
2022/01/05 07:51:31;;;;;;;26.02;3.22;;;5.20;99.90;;;;;;4994123;28;20512;-71
2022/01/05 07:53:56;;;;;;;24.80;3.10;;;5.20;99.90;;;;;;4995282;28;20074;-69
2022/01/05 07:56:22;;;;;;;20.88;2.65;;;5.30;99.90;;;;;;4996916;28;20382;-70
2022/01/05 07:58:49;;;;;;;22.38;3.28;;;5.40;99.90;;;;;;4991742;28;20066;-71
2022/01/05 08:01:18;;;;;;;29.35;3.25;;;5.50;99.90;;;;;;4994201;28;20049;-71
2022/01/05 08:03:48;;;;;;;15.10;2.15;;;5.50;99.90;;;;;;4996632;28;20475;-71
2022/01/05 08:06:14;;;;;;;10.95;1.75;;;5.60;99.90;;;;;;4999105;28;20511;-71
2022/01/05 08:08:39;;;;;;;11.45;1.63;;;5.50;99.90;;;;;;4992401;28;20040;-71
2022/01/05 08:11:05;;;;;;;12.23;1.95;;;5.40;99.90;;;;;;4999061;28;20075;-71
2022/01/05 08:13:31;;;;;;;7.95;1.23;;;5.30;99.90;;;;;;4999930;28;20096;-71
2022/01/05 08:15:56;;;;;;;17.42;2.00;;;5.30;99.90;;;;;;4996213;28;20065;-71
2022/01/05 08:18:22;;;;;;;10.20;1.55;;;5.20;99.90;;;;;;4997952;28;20056;-71
2022/01/05 08:20:48;;;;;;;11.30;1.42;;;5.20;99.90;;;;;;4972130;28;20486;-70
2022/01/05 08:23:18;;;;;;;16.50;2.10;;;5.20;99.90;;;;;;4996148;28;20057;-70
2022/01/05 08:25:44;;;;;;;21.08;3.58;;;5.20;99.90;;;;;;5000300;28;20042;-71
2022/01/05 08:28:11;;;;;;;19.95;3.08;;;5.30;99.90;;;;;;4999265;28;20057;-70
2022/01/05 08:30:38;;;;;;;20.58;3.70;;;5.30;99.90;;;;;;4998582;28;20638;-70
2022/01/05 08:33:04;;;;;;;21.13;3.20;;;5.40;99.90;;;;;;5006048;28;20065;-71
2022/01/05 08:35:31;;;;;;;14.68;3.83;;;5.40;99.90;;;;;;5002327;28;20045;-71
2022/01/05 08:37:57;;;;;;;29.30;3.15;;;5.50;99.90;;;;;;4998212;28;21150;-71
2022/01/05 08:40:25;;;;;;;23.70;3.58;;;5.60;99.90;;;;;;4998413;28;20069;-71
2022/01/05 08:42:52;;;;;;;21.00;3.65;;;5.70;99.90;;;;;;4981605;28;21169;-71
2022/01/05 08:45:19;;;;;;;25.10;4.07;;;5.80;99.90;;;;;;4987966;28;20144;-71
2022/01/05 08:47:48;;;;;;;22.27;3.45;;;5.80;99.90;;;;;;4994044;28;20058;-69
2022/01/05 08:50:18;;;;;;;24.38;4.75;;;5.90;99.90;;;;;;4998609;28;20057;-70
2022/01/05 08:52:44;;;;;;;16.58;3.00;;;5.90;99.90;;;;;;4988691;28;20060;-70
2022/01/05 08:55:10;;;;;;;23.08;3.60;;;5.90;99.90;;;;;;4989692;28;20054;-70
2022/01/05 08:57:36;;;;;;;26.08;4.55;;;5.90;99.90;;;;;;4997418;28;20115;-71
2022/01/05 09:00:05;;;;;;;27.65;4.80;;;5.90;99.90;;;;;;4998570;28;20504;-71
2022/01/05 09:02:30;;;;;;;24.48;3.70;;;5.90;99.90;;;;;;4995211;28;20057;-71
2022/01/05 09:04:56;;;;;;;22.15;3.45;;;5.90;99.90;;;;;;4996545;28;20485;-71
2022/01/05 09:07:22;;;;;;;21.17;3.28;;;5.90;99.90;;;;;;4993464;28;20042;-70
2022/01/05 09:09:47;;;;;;;20.02;5.10;;;6.00;99.90;;;;;;4998327;28;20057;-70
2022/01/05 09:12:13;;;;;;;22.70;4.45;;;6.00;99.90;;;;;;4998084;28;20037;-70
2022/01/05 09:14:39;;;;;;;22.02;4.25;;;6.00;99.90;;;;;;4996657;28;20034;-71
2022/01/05 09:17:07;;;;;;;23.30;3.60;;;6.00;99.90;;;;;;4994272;28;20381;-71
2022/01/05 09:19:33;;;;;;;18.15;4.05;;;6.10;99.90;;;;;;4989662;28;20057;-70
2022/01/05 09:21:59;;;;;;;23.30;3.08;;;6.10;99.90;;;;;;4998709;28;20056;-70
2022/01/05 09:24:25;;;;;;;30.83;4.22;;;6.10;99.90;;;;;;4995424;28;20053;-70
2022/01/05 09:26:51;;;;;;;34.35;4.45;;;6.10;99.90;;;;;;4992753;28;20385;-71
2022/01/05 09:29:18;;;;;;;35.55;4.95;;;6.10;99.90;;;;;;4980212;28;20042;-70
2022/01/05 09:31:44;;;;;;;23.98;3.65;;;6.20;99.90;;;;;;4962535;28;20065;-70
2022/01/05 09:34:10;;;;;;;21.08;4.10;;;6.30;99.90;;;;;;4960730;28;20089;-71
2022/01/05 09:36:41;;;;;;;19.98;3.22;;;6.30;99.90;;;;;;4975652;28;20664;-70
2022/01/05 09:42:00;;;;;;;15.88;2.90;;;6.30;99.90;;;;;;4960161;28;20501;-70
2022/01/05 09:44:31;;;;;;;17.88;4.05;;;6.30;99.90;;;;;;4979306;28;20081;-70
2022/01/05 09:47:00;;;;;;;21.77;4.07;;;6.30;99.90;;;;;;4975572;28;20054;-70
2022/01/05 09:49:34;;;;;;;13.73;2.50;;;6.30;99.90;;;;;;4976540;28;20097;-71
2022/01/05 09:52:09;;;;;;;22.27;3.45;;;6.30;99.90;;;;;;4957623;28;20050;-70
2022/01/05 09:54:37;;;;;;;24.50;3.50;;;6.30;99.90;;;;;;4977944;28;20046;-71
2022/01/05 09:57:05;;;;;;;26.65;4.47;;;6.30;99.90;;;;;;4975456;28;20046;-71
2022/01/05 09:59:34;;;;;;;21.85;3.95;;;6.40;99.90;;;;;;4962005;28;20058;-71
2022/01/05 10:02:00;;;;;;;28.15;3.88;;;6.50;99.90;;;;;;4961525;28;20046;-72
2022/01/05 10:04:25;;;;;;;18.48;3.63;;;6.60;99.90;;;;;;4977688;28;20042;-71
2022/01/05 10:06:51;;;;;;;21.20;2.83;;;6.50;99.90;;;;;;4965340;28;20038;-71
2022/01/05 10:09:17;;;;;;;15.15;3.03;;;6.50;99.90;;;;;;4960082;28;20485;-71
2022/01/05 10:11:43;;;;;;;24.23;3.90;;;6.50;99.90;;;;;;4960954;28;20046;-71
2022/01/05 10:14:12;;;;;;;18.25;3.17;;;6.50;99.90;;;;;;4962078;28;20053;-71
2022/01/05 10:16:39;;;;;;;25.60;4.53;;;6.40;99.90;;;;;;4979993;28;20089;-71
2022/01/05 10:19:06;;;;;;;18.50;3.80;;;6.40;99.90;;;;;;4975376;28;20046;-71
2022/01/05 10:21:39;;;;;;;23.00;3.38;;;6.40;99.90;;;;;;4976075;28;20133;-71
2022/01/05 10:24:05;;;;;;;;;;;6.40;99.90;;;;;;4979585;28;20099;-71
2022/01/05 10:26:31;;;;;;;7.72;2.60;;;6.30;99.90;;;;;;4960610;28;20331;-73
2022/01/05 10:29:04;;;;;;;8.73;1.80;;;6.30;99.90;;;;;;4958376;28;20050;-72
2022/01/05 10:31:38;;;;;;;8.48;1.95;;;6.30;99.90;;;;;;4978493;28;20053;-72
2022/01/05 10:34:19;;;;;;;9.70;1.67;;;6.30;99.90;;;;;;4975804;28;20050;-72
2022/01/05 10:36:53;;;;;;;9.77;1.83;;;6.30;99.90;;;;;;4943831;28;20100;-71
2022/01/05 10:39:31;;;;;;;10.43;1.75;;;6.30;99.90;;;;;;4959274;28;20377;-72
2022/01/05 10:42:03;;;;;;;10.18;1.85;;;6.40;99.90;;;;;;4978065;28;20045;-71
2022/01/05 10:44:28;;;;;;;15.38;2.60;;;6.40;99.90;;;;;;4977600;28;20042;-72
2022/01/05 10:46:56;;;;;;;10.90;2.60;;;6.40;99.90;;;;;;4979114;28;20092;-71
2022/01/05 10:49:25;;;;;;;16.77;2.40;;;6.40;99.90;;;;;;4956535;28;20047;-71
2022/01/05 10:51:51;;;;;;;16.13;2.42;;;6.50;99.90;;;;;;4977579;28;20116;-72
2022/01/05 10:54:21;;;;;;;12.75;3.35;;;6.50;99.90;;;;;;4961254;28;20177;-72
2022/01/05 10:56:47;;;;;;;14.05;3.25;;;6.60;99.90;;;;;;4957957;28;20046;-71
2022/01/05 10:59:14;;;;;;;17.35;2.75;;;6.70;99.90;;;;;;4973936;28;20129;-71
2022/01/05 11:01:42;;;;;;;11.85;2.55;;;6.70;99.90;;;;;;4975255;28;20045;-71
2022/01/05 11:04:21;;;;;;;18.92;2.55;;;6.90;99.90;;;;;;4974366;28;20502;-71
2022/01/05 11:07:03;;;;;;;18.73;3.53;;;7.00;99.90;;;;;;4975828;28;20042;-71
2022/01/05 11:09:32;;;;;;;19.38;3.97;;;7.00;99.90;;;;;;4976466;28;20047;-71
2022/01/05 11:11:58;;;;;;;15.40;2.55;;;7.10;99.90;;;;;;4957045;28;20061;-70
2022/01/05 11:14:34;;;;;;;14.32;2.55;;;6.90;99.90;;;;;;4959294;28;20058;-71
2022/01/05 11:17:03;;;;;;;17.30;3.30;;;6.60;99.90;;;;;;4977064;28;20052;-71
2022/01/05 11:19:31;;;;;;;21.67;2.63;;;6.50;99.90;;;;;;4975234;28;21616;-71
2022/01/05 11:22:14;;;;;;;21.05;3.17;;;6.40;99.90;;;;;;4983805;28;20061;-71
2022/01/05 11:24:46;;;;;;;17.85;2.65;;;6.30;99.90;;;;;;4956964;28;20042;-71
2022/01/05 11:27:16;;;;;;;22.10;2.85;;;6.30;99.90;;;;;;4985553;28;20053;-72
2022/01/05 11:29:42;;;;;;;15.05;2.83;;;6.30;99.90;;;;;;4991037;28;20046;-71
2022/01/05 11:32:10;;;;;;;19.88;3.40;;;6.40;99.90;;;;;;4998474;28;20144;-71
2022/01/05 11:34:37;;;;;;;12.75;2.20;;;6.50;99.90;;;;;;4998058;28;20076;-72
2022/01/05 11:37:10;;;;;;;19.73;3.10;;;6.60;99.90;;;;;;5001199;28;20080;-71
2022/01/05 11:39:43;;;;;;;19.15;2.47;;;6.70;99.90;;;;;;5003365;28;20074;-71
2022/01/05 11:42:12;;;;;;;19.52;3.53;;;6.70;99.90;;;;;;5004164;28;20046;-72
2022/01/05 11:44:51;;;;;;;17.92;2.70;;;6.80;99.90;;;;;;5009013;28;20097;-70
2022/01/05 11:47:26;;;;;;;23.20;2.42;;;6.80;99.90;;;;;;5010555;28;20049;-71
2022/01/05 11:49:54;;;;;;;15.98;2.83;;;6.80;99.90;;;;;;5009505;28;20041;-70
2022/01/05 11:52:55;;;;;;;28.92;3.13;;;6.90;99.90;;;;;;5004463;28;20394;-70
2022/01/05 11:55:22;;;;;;;17.17;3.78;;;6.90;99.90;;;;;;5003693;28;20489;-70
2022/01/05 11:58:15;;;;;;;17.45;3.45;;;7.00;99.90;;;;;;5006190;28;20042;-71
2022/01/05 12:00:42;;;;;;;27.42;3.50;;;7.20;99.90;;;;;;4991677;28;20072;-72
2022/01/05 12:03:08;;;;;;;19.00;3.92;;;7.40;99.90;;;;;;5007009;28;20053;-71
2022/01/05 12:06:05;;;;;;;15.07;3.67;;;7.40;99.90;;;;;;5001278;28;20138;-71
2022/01/05 12:08:41;;;;;;;12.38;3.20;;;7.40;99.90;;;;;;5004439;28;20042;-70
2022/01/05 12:11:30;;;;;;;14.32;2.42;;;7.10;99.90;;;;;;4999376;28;20521;-70
2022/01/05 12:13:57;;;;;;;12.70;1.90;;;6.80;99.90;;;;;;4998462;28;20053;-71
2022/01/05 12:16:24;;;;;;;15.10;1.77;;;6.60;99.90;;;;;;5004991;28;20038;-70
2022/01/05 12:19:06;;;;;;;11.90;2.22;;;6.40;99.90;;;;;;5007893;28;20293;-71
2022/01/05 12:21:46;;;;;;;17.90;2.72;;;6.30;99.90;;;;;;5005666;28;20528;-71
2022/01/05 12:24:13;;;;;;;18.13;2.53;;;6.20;99.90;;;;;;5003367;28;20143;-70
2022/01/05 12:26:39;;;;;;;21.05;4.03;;;6.20;99.90;;;;;;5004173;28;20103;-71
2022/01/05 12:29:05;;;;;;;15.05;2.70;;;6.20;99.90;;;;;;5000716;28;20050;-70
2022/01/05 12:31:54;;;;;;;21.95;2.72;;;6.30;99.90;;;;;;5004288;28;20042;-70
2022/01/05 12:34:54;;;;;;;21.90;3.42;;;6.40;99.90;;;;;;5004220;28;20382;-70
2022/01/05 12:37:42;;;;;;;19.42;4.20;;;6.50;99.90;;;;;;5001383;28;20497;-72
2022/01/05 12:40:30;;;;;;;23.17;3.63;;;6.70;99.90;;;;;;5002270;28;20416;-71
2022/01/05 12:43:08;;;;;;;17.23;3.90;;;6.80;99.90;;;;;;4980420;28;20046;-71
2022/01/05 12:45:57;;;;;;;22.25;3.70;;;7.00;99.90;;;;;;4999861;28;20479;-71
2022/01/05 12:48:36;;;;;;;29.75;6.53;;;7.20;99.90;;;;;;5004064;28;20053;-71
2022/01/05 12:51:23;;;;;;;23.40;3.67;;;7.30;99.90;;;;;;5001639;28;21148;-71
2022/01/05 12:54:02;;;;;;;25.88;4.65;;;7.30;99.90;;;;;;5000683;28;20053;-71